Time;durP1;ratioP1;P1;durP2;ratioP2;P2;SDS_P1;SDS_P2;PMS_P1;PMS_P2;Temp;Humidity;BMP_temperature;BMP_pressure;BME280_temperature;BME280_humidity;BME280_pressure;Samples;Min_cycle;Max_cycle;Signal;HPM_P1;HPM_P2
2022/11/09 00:02:48;;;;;;;4.47;3.13;;;;;;;;;;4992800;28;20186;-90
2022/11/09 00:05:57;;;;;;;4.43;3.67;;;;;;;;;;4992047;28;20182;-90
2022/11/09 00:09:03;;;;;;;6.73;3.23;;;;;;;;;;5002595;28;20186;-90
2022/11/09 00:12:07;;;;;;;5.70;3.60;;;;;;;;;;5003429;28;20703;-85
2022/11/09 00:15:12;;;;;;;7.67;3.63;;;;;;;;;;5011465;28;20196;-86
2022/11/09 00:18:16;;;;;;;4.90;2.93;;;;;;;;;;4999816;28;20192;-85
2022/11/09 00:21:22;;;;;;;4.23;3.00;;;;;;;;;;4999701;28;20216;-85
2022/11/09 00:24:27;;;;;;;4.77;3.70;;;;;;;;;;5011690;28;20180;-85
2022/11/09 00:27:30;;;;;;;4.40;3.30;;;;;;;;;;5010737;28;20177;-85
2022/11/09 00:30:35;;;;;;;5.33;3.83;;;;;;;;;;4999413;28;20232;-85
2022/11/09 00:33:39;;;;;;;5.07;3.47;;;;;;;;;;5000191;28;20200;-85
2022/11/09 00:36:43;;;;;;;4.73;3.60;;;;;;;;;;5021968;28;20214;-85
2022/11/09 00:39:47;;;;;;;5.23;3.57;;;;;;;;;;4999667;28;20193;-85
2022/11/09 00:42:51;;;;;;;5.13;3.33;;;;;;;;;;5011017;28;20181;-85
2022/11/09 00:45:56;;;;;;;5.83;3.57;;;;;;;;;;4999747;28;20639;-85
2022/11/09 00:49:00;;;;;;;7.23;3.33;;;;;;;;;;4999947;28;20531;-85
2022/11/09 00:52:04;;;;;;;6.77;3.23;;;;;;;;;;4999351;28;20556;-85
2022/11/09 00:55:08;;;;;;;5.83;3.57;;;;;;;;;;4999791;28;20308;-85
2022/11/09 00:58:13;;;;;;;4.67;3.40;;;;;;;;;;4999557;28;20185;-85
2022/11/09 01:01:17;;;;;;;4.37;3.13;;;;;;;;;;5000754;28;20220;-86
2022/11/09 01:04:21;;;;;;;5.27;3.10;;;;;;;;;;5003399;28;20185;-85
2022/11/09 01:07:25;;;;;;;5.60;3.50;;;;;;;;;;5014297;28;20193;-85
2022/11/09 01:10:30;;;;;;;5.07;3.20;;;;;;;;;;5003491;28;20640;-86
2022/11/09 01:13:36;;;;;;;7.13;3.47;;;;;;;;;;5003785;28;20230;-85
2022/11/09 01:16:40;;;;;;;6.13;3.20;;;;;;;;;;5003509;28;20652;-86
2022/11/09 01:19:45;;;;;;;4.43;3.10;;;;;;;;;;5014585;28;20185;-86
2022/11/09 01:22:49;;;;;;;6.63;3.20;;;;;;;;;;5014434;28;20516;-86
2022/11/09 01:25:58;;;;;;;7.73;3.83;;;;;;;;;;5003542;28;20185;-86
2022/11/09 01:29:02;;;;;;;3.97;3.20;;;;;;;;;;5002999;28;20185;-86
2022/11/09 01:32:06;;;;;;;5.07;3.30;;;;;;;;;;5037534;28;20257;-85
2022/11/09 01:35:10;;;;;;;7.53;3.23;;;;;;;;;;5014346;28;20188;-85
2022/11/09 01:38:14;;;;;;;4.70;3.40;;;;;;;;;;5014319;28;20213;-85
2022/11/09 01:41:21;;;;;;;4.67;3.17;;;;;;;;;;5002144;28;20224;-85
2022/11/09 01:44:26;;;;;;;5.57;3.30;;;;;;;;;;5014235;28;20201;-85
2022/11/09 01:47:31;;;;;;;4.23;2.70;;;;;;;;;;5013474;28;20185;-85
2022/11/09 01:50:37;;;;;;;4.60;3.30;;;;;;;;;;5013589;28;20212;-85
2022/11/09 01:53:46;;;;;;;4.73;3.40;;;;;;;;;;5013577;28;20189;-85
2022/11/09 01:56:58;;;;;;;4.73;3.00;;;;;;;;;;5002397;28;20217;-85
2022/11/09 02:00:07;;;;;;;4.27;3.00;;;;;;;;;;5013220;28;20185;-85
2022/11/09 02:03:24;;;;;;;5.23;3.03;;;;;;;;;;5013949;28;20189;-85
2022/11/09 02:06:29;;;;;;;6.47;3.37;;;;;;;;;;5001997;28;20173;-85
2022/11/09 02:09:41;;;;;;;4.30;3.13;;;;;;;;;;5002217;28;20181;-85
2022/11/09 02:12:45;;;;;;;3.70;2.87;;;;;;;;;;5012462;28;20201;-85
2022/11/09 02:15:50;;;;;;;4.47;3.07;;;;;;;;;;5001807;28;20205;-85
2022/11/09 02:18:57;;;;;;;5.70;3.13;;;;;;;;;;5001278;28;20181;-85
2022/11/09 02:22:02;;;;;;;6.10;3.80;;;;;;;;;;5001492;28;20221;-85
2022/11/09 02:25:10;;;;;;;5.13;3.73;;;;;;;;;;5001783;28;20189;-85
2022/11/09 02:28:16;;;;;;;5.10;3.27;;;;;;;;;;5001635;28;20173;-85
2022/11/09 02:31:27;;;;;;;6.40;3.07;;;;;;;;;;5001190;28;20232;-85
2022/11/09 02:34:31;;;;;;;5.43;3.17;;;;;;;;;;5001271;28;20624;-85
2022/11/09 02:37:47;;;;;;;3.97;3.10;;;;;;;;;;5012662;28;20216;-85
2022/11/09 02:40:52;;;;;;;4.17;3.10;;;;;;;;;;5001333;28;20220;-85
2022/11/09 02:43:58;;;;;;;7.57;4.20;;;;;;;;;;5012294;28;20185;-85
2022/11/09 02:47:03;;;;;;;5.30;3.47;;;;;;;;;;5001248;28;20521;-85
2022/11/09 02:50:09;;;;;;;4.97;3.30;;;;;;;;;;5001459;28;20181;-85
2022/11/09 02:53:14;;;;;;;6.23;3.50;;;;;;;;;;5001033;28;20185;-85
2022/11/09 02:56:21;;;;;;;6.90;3.33;;;;;;;;;;5001672;28;20257;-85
2022/11/09 02:59:26;;;;;;;6.30;3.00;;;;;;;;;;5012153;28;20196;-85
2022/11/09 03:02:30;;;;;;;4.80;3.50;;;;;;;;;;5000530;28;20216;-85
2022/11/09 03:05:35;;;;;;;4.20;3.37;;;;;;;;;;5000926;28;20176;-85
2022/11/09 03:08:39;;;;;;;5.10;3.60;;;;;;;;;;5011930;28;20193;-85
2022/11/09 03:11:43;;;;;;;8.13;3.70;;;;;;;;;;5011805;28;20228;-85
2022/11/09 03:14:50;;;;;;;5.17;3.33;;;;;;;;;;5012337;28;20184;-85
2022/11/09 03:17:55;;;;;;;6.00;3.30;;;;;;;;;;5001283;28;20213;-85
2022/11/09 03:21:01;;;;;;;7.00;3.70;;;;;;;;;;5001003;28;20719;-85
2022/11/09 03:24:06;;;;;;;4.97;3.17;;;;;;;;;;5012334;28;20181;-85
2022/11/09 03:27:14;;;;;;;5.13;3.50;;;;;;;;;;5001937;28;20173;-85
2022/11/09 03:30:19;;;;;;;5.63;3.17;;;;;;;;;;5000993;28;20300;-86
2022/11/09 03:33:23;;;;;;;8.47;3.53;;;;;;;;;;5000741;28;20201;-85
2022/11/09 03:37:20;;;;;;;6.77;3.20;;;;;;;;;;5012518;28;20185;-85
2022/11/09 03:40:25;;;;;;;4.07;3.03;;;;;;;;;;5000712;28;20632;-85
2022/11/09 03:43:29;;;;;;;4.33;3.23;;;;;;;;;;5000377;28;20192;-85
2022/11/09 03:46:33;;;;;;;4.80;3.37;;;;;;;;;;5000383;28;20537;-85
2022/11/09 03:49:37;;;;;;;5.07;3.70;;;;;;;;;;5000016;28;20533;-85
2022/11/09 03:52:45;;;;;;;4.93;3.53;;;;;;;;;;5022580;28;20236;-85
2022/11/09 03:55:49;;;;;;;5.03;3.30;;;;;;;;;;4999523;28;20659;-85
2022/11/09 03:58:54;;;;;;;7.57;3.60;;;;;;;;;;5011067;28;20204;-85
2022/11/09 04:01:58;;;;;;;4.83;3.03;;;;;;;;;;4999771;28;20220;-85
2022/11/09 04:05:02;;;;;;;4.77;3.17;;;;;;;;;;5010990;28;20180;-85
2022/11/09 04:08:06;;;;;;;4.60;3.20;;;;;;;;;;4999238;28;20185;-85
2022/11/09 04:11:10;;;;;;;6.17;3.03;;;;;;;;;;4999243;28;20220;-85
2022/11/09 04:14:15;;;;;;;5.07;3.00;;;;;;;;;;4999733;28;20181;-85
2022/11/09 04:17:19;;;;;;;6.13;3.17;;;;;;;;;;4999487;28;20316;-85
2022/11/09 04:20:25;;;;;;;6.90;3.10;;;;;;;;;;4999518;28;20188;-85
2022/11/09 04:23:29;;;;;;;4.40;3.37;;;;;;;;;;5010681;28;20188;-86
2022/11/09 04:26:33;;;;;;;6.67;3.10;;;;;;;;;;4999667;28;20177;-85
2022/11/09 04:29:37;;;;;;;5.03;3.73;;;;;;;;;;4999357;28;20177;-85
2022/11/09 04:32:42;;;;;;;8.83;3.27;;;;;;;;;;5010702;28;20536;-86
2022/11/09 04:35:45;;;;;;;5.60;3.00;;;;;;;;;;5001934;28;20517;-85
2022/11/09 04:38:50;;;;;;;6.37;3.00;;;;;;;;;;5003213;28;20216;-85
2022/11/09 04:41:54;;;;;;;4.33;2.83;;;;;;;;;;5014385;28;20220;-86
2022/11/09 04:45:00;;;;;;;6.10;3.00;;;;;;;;;;5003288;28;20521;-86
2022/11/09 04:48:06;;;;;;;6.33;3.00;;;;;;;;;;5002846;28;20193;-85
2022/11/09 04:51:10;;;;;;;5.43;3.60;;;;;;;;;;5014115;28;20228;-86
2022/11/09 04:54:14;;;;;;;4.20;3.00;;;;;;;;;;5014061;28;20562;-85
2022/11/09 04:57:18;;;;;;;4.33;2.97;;;;;;;;;;5002779;28;20216;-85
2022/11/09 05:00:23;;;;;;;5.73;3.00;;;;;;;;;;5014604;28;20185;-86
2022/11/09 05:03:27;;;;;;;3.57;2.77;;;;;;;;;;5002919;28;20185;-85
2022/11/09 05:06:31;;;;;;;4.80;2.80;;;;;;;;;;5003516;28;20185;-85
2022/11/09 05:09:35;;;;;;;4.30;2.90;;;;;;;;;;5015026;28;20177;-85
2022/11/09 05:12:39;;;;;;;4.60;2.87;;;;;;;;;;5014371;28;20181;-85
2022/11/09 05:15:43;;;;;;;3.77;2.60;;;;;;;;;;5003254;28;20181;-85
2022/11/09 05:18:48;;;;;;;3.57;2.60;;;;;;;;;;5004113;28;20208;-86
2022/11/09 05:21:52;;;;;;;4.20;2.47;;;;;;;;;;5002824;28;20221;-85
2022/11/09 05:24:56;;;;;;;4.03;3.00;;;;;;;;;;5002725;28;20185;-85
2022/11/09 05:28:01;;;;;;;3.77;2.40;;;;;;;;;;5014423;28;20517;-85
2022/11/09 05:31:05;;;;;;;6.17;2.87;;;;;;;;;;5002866;28;20228;-85
2022/11/09 05:34:11;;;;;;;6.43;3.13;;;;;;;;;;5003185;28;20188;-85
2022/11/09 05:37:16;;;;;;;5.83;2.90;;;;;;;;;;5014137;28;20200;-85
2022/11/09 05:40:20;;;;;;;4.70;3.00;;;;;;;;;;5013871;28;20545;-85
2022/11/09 05:43:24;;;;;;;4.37;3.00;;;;;;;;;;5014228;28;20204;-85
2022/11/09 05:46:30;;;;;;;3.80;2.67;;;;;;;;;;5002439;28;20620;-85
2022/11/09 05:49:34;;;;;;;4.60;3.40;;;;;;;;;;5002486;28;20185;-86
2022/11/09 05:52:39;;;;;;;4.80;3.40;;;;;;;;;;4993449;28;20653;-86
2022/11/09 05:55:43;;;;;;;5.00;3.50;;;;;;;;;;4982100;28;20197;-85
2022/11/09 05:58:47;;;;;;;5.47;3.80;;;;;;;;;;4993676;28;20221;-85
2022/11/09 06:01:51;;;;;;;4.03;3.33;;;;;;;;;;4988596;28;20228;-85
2022/11/09 06:04:56;;;;;;;5.10;3.33;;;;;;;;;;5013472;28;20189;-85
2022/11/09 06:08:18;;;;;;;9.83;3.97;;;;;;;;;;5013125;28;20624;-85
2022/11/09 06:11:22;;;;;;;5.50;3.63;;;;;;;;;;5002447;28;20229;-86
2022/11/09 06:14:26;;;;;;;7.20;3.53;;;;;;;;;;4993382;28;20194;-86
2022/11/09 06:17:30;;;;;;;6.93;3.77;;;;;;;;;;4994142;28;20637;-86
2022/11/09 06:20:35;;;;;;;6.60;4.10;;;;;;;;;;5021492;28;20220;-86
2022/11/09 06:23:39;;;;;;;7.33;4.10;;;;;;;;;;5014054;28;20180;-86
2022/11/09 06:26:43;;;;;;;7.60;4.43;;;;;;;;;;5014419;28;20185;-86
2022/11/09 06:29:48;;;;;;;9.40;4.20;;;;;;;;;;5014403;28;20188;-86
2022/11/09 06:33:00;;;;;;;5.10;3.80;;;;;;;;;;5014918;28;20212;-86
2022/11/09 06:36:05;;;;;;;6.87;3.80;;;;;;;;;;5016127;28;20198;-85
2022/11/09 06:39:09;;;;;;;6.70;3.80;;;;;;;;;;5019758;28;20228;-85
2022/11/09 06:42:14;;;;;;;5.67;3.60;;;;;;;;;;5020627;28;20212;-86
2022/11/09 06:45:18;;;;;;;6.00;3.63;;;;;;;;;;5032412;28;20197;-85
2022/11/09 06:48:23;;;;;;;10.47;4.27;;;;;;;;;;5019893;28;20181;-85
2022/11/09 06:51:27;;;;;;;10.33;4.37;;;;;;;;;;5019415;28;20549;-86
2022/11/09 06:54:32;;;;;;;4.50;3.27;;;;;;;;;;5030249;28;20185;-85
2022/11/09 06:57:36;;;;;;;4.47;3.03;;;;;;;;;;5018464;28;20181;-86
2022/11/09 07:00:43;;;;;;;5.63;3.40;;;;;;;;;;5029366;28;20216;-85
2022/11/09 07:03:47;;;;;;;5.87;3.73;;;;;;;;;;5028628;28;20188;-85
2022/11/09 07:06:52;;;;;;;4.40;3.17;;;;;;;;;;5017650;28;20628;-85
2022/11/09 07:09:57;;;;;;;6.13;2.83;;;;;;;;;;5008150;28;20205;-85
2022/11/09 07:13:02;;;;;;;5.30;3.10;;;;;;;;;;4992285;28;20213;-85
2022/11/09 07:16:07;;;;;;;5.63;2.87;;;;;;;;;;4996595;28;20209;-85
2022/11/09 07:19:11;;;;;;;5.23;2.80;;;;;;;;;;4994835;28;20221;-85
2022/11/09 07:22:15;;;;;;;3.37;2.53;;;;;;;;;;4994226;28;20217;-85
2022/11/09 07:25:20;;;;;;;11.33;6.97;;;;;;;;;;4984770;28;20185;-85
2022/11/09 07:28:24;;;;;;;6.83;4.57;;;;;;;;;;4994667;28;20182;-85
2022/11/09 07:31:30;;;;;;;7.17;3.60;;;;;;;;;;4981999;28;20224;-85
2022/11/09 07:34:34;;;;;;;7.70;3.93;;;;;;;;;;4982619;28;20186;-85
2022/11/09 07:37:38;;;;;;;7.67;4.30;;;;;;;;;;4990554;28;20208;-85
2022/11/09 07:40:43;;;;;;;8.70;4.77;;;;;;;;;;5012100;28;20221;-85
2022/11/09 07:43:56;;;;;;;5.27;3.30;;;;;;;;;;5003167;28;20180;-86
2022/11/09 07:47:04;;;;;;;6.30;3.50;;;;;;;;;;5003675;28;20208;-85
2022/11/09 07:50:09;;;;;;;4.93;3.50;;;;;;;;;;5002983;28;20181;-84
2022/11/09 07:53:15;;;;;;;6.33;3.60;;;;;;;;;;5003441;28;20632;-84
2022/11/09 07:56:19;;;;;;;4.77;3.43;;;;;;;;;;5003734;28;20189;-85
2022/11/09 07:59:24;;;;;;;9.43;3.87;;;;;;;;;;5002402;28;20217;-85
2022/11/09 08:02:28;;;;;;;5.73;3.50;;;;;;;;;;5012449;28;20220;-85
2022/11/09 08:05:33;;;;;;;8.83;4.43;;;;;;;;;;5001646;28;20548;-86
2022/11/09 08:08:37;;;;;;;9.57;4.30;;;;;;;;;;5001080;28;20200;-85
2022/11/09 08:11:42;;;;;;;9.40;4.13;;;;;;;;;;5007859;28;20223;-86
2022/11/09 08:14:46;;;;;;;6.33;3.87;;;;;;;;;;5007649;28;20180;-86
2022/11/09 08:17:51;;;;;;;8.40;3.53;;;;;;;;;;5007857;28;20180;-86
2022/11/09 08:20:55;;;;;;;6.50;3.00;;;;;;;;;;5007422;28;20565;-86
2022/11/09 08:24:00;;;;;;;4.90;2.70;;;;;;;;;;5007534;28;20204;-85
2022/11/09 08:27:04;;;;;;;7.23;3.10;;;;;;;;;;5006647;28;20200;-85
2022/11/09 08:30:19;;;;;;;10.40;3.40;;;;;;;;;;5006316;28;20545;-86
2022/11/09 08:33:26;;;;;;;10.13;4.10;;;;;;;;;;5006308;28;20531;-86
2022/11/09 08:36:31;;;;;;;30.33;13.93;;;;;;;;;;5006793;28;20211;-85
2022/11/09 08:39:36;;;;;;;9.13;4.63;;;;;;;;;;5006777;28;20220;-85
2022/11/09 08:42:42;;;;;;;12.83;3.50;;;;;;;;;;5006328;28;20263;-85
2022/11/09 08:45:47;;;;;;;5.63;3.10;;;;;;;;;;5006657;28;20209;-85
2022/11/09 08:48:51;;;;;;;3.67;2.77;;;;;;;;;;5006244;28;20185;-84
2022/11/09 08:51:55;;;;;;;5.23;2.77;;;;;;;;;;5006120;28;20691;-86
2022/11/09 08:55:00;;;;;;;5.10;2.80;;;;;;;;;;5006538;28;20185;-85
2022/11/09 08:58:05;;;;;;;3.93;2.90;;;;;;;;;;5006577;28;20181;-84
2022/11/09 09:01:11;;;;;;;4.93;3.87;;;;;;;;;;5017574;28;20216;-85
2022/11/09 09:04:15;;;;;;;6.97;5.03;;;;;;;;;;5005974;28;20224;-87
2022/11/09 09:07:19;;;;;;;7.93;6.23;;;;;;;;;;5017328;28;20274;-85
2022/11/09 09:10:23;;;;;;;7.20;5.93;;;;;;;;;;5005917;28;20521;-86
2022/11/09 09:13:28;;;;;;;8.23;5.63;;;;;;;;;;5005999;28;20196;-86
2022/11/09 09:16:32;;;;;;;3.90;3.10;;;;;;;;;;5006723;28;20204;-85
2022/11/09 09:19:36;;;;;;;3.37;2.70;;;;;;;;;;5006949;28;20208;-85
2022/11/09 09:22:40;;;;;;;4.03;2.33;;;;;;;;;;5003987;28;20524;-85
2022/11/09 09:25:44;;;;;;;5.77;2.80;;;;;;;;;;5004771;28;20189;-86
2022/11/09 09:28:50;;;;;;;4.60;2.20;;;;;;;;;;5004377;28;20181;-86
2022/11/09 09:31:54;;;;;;;3.53;2.00;;;;;;;;;;5005777;28;20225;-87
2022/11/09 09:34:58;;;;;;;5.67;3.60;;;;;;;;;;5004302;28;20184;-87
2022/11/09 09:38:03;;;;;;;10.73;4.20;;;;;;;;;;5003787;28;20189;-87
2022/11/09 09:41:17;;;;;;;8.87;3.87;;;;;;;;;;5003666;28;20216;-87
2022/11/09 09:44:36;;;;;;;5.17;3.30;;;;;;;;;;5003505;28;20541;-87
2022/11/09 09:47:51;;;;;;;2.83;1.90;;;;;;;;;;5002875;28;20185;-86
2022/11/09 09:51:03;;;;;;;3.27;1.90;;;;;;;;;;5003215;28;20216;-87
2022/11/09 09:54:55;;;;;;;3.60;1.90;;;;;;;;;;5002789;28;20189;-87
2022/11/09 09:58:11;;;;;;;3.53;2.60;;;;;;;;;;4956647;28;20546;-87
2022/11/09 10:01:19;;;;;;;6.47;2.33;;;;;;;;;;5013861;28;20220;-87
2022/11/09 10:04:34;;;;;;;4.30;2.93;;;;;;;;;;5002818;28;20185;-86
2022/11/09 10:07:58;;;;;;;9.57;3.53;;;;;;;;;;5002262;28;20185;-86
2022/11/09 10:11:20;;;;;;;8.87;2.63;;;;;;;;;;5001532;28;20229;-86
2022/11/09 10:14:50;;;;;;;4.90;2.57;;;;;;;;;;5002191;28;20628;-86
2022/11/09 10:18:08;;;;;;;4.50;2.20;;;;;;;;;;5011617;28;20204;-86
2022/11/09 10:21:49;;;;;;;6.20;1.93;;;;;;;;;;4982124;28;20221;-86
2022/11/09 10:25:13;;;;;;;96.43;60.60;;;;;;;;;;4993370;28;20193;-86
2022/11/09 10:28:19;;;;;;;40.67;25.20;;;;;;;;;;4981588;28;20193;-86
2022/11/09 10:31:24;;;;;;;62.73;45.40;;;;;;;;;;4992565;28;20232;-86
2022/11/09 10:34:32;;;;;;;16.53;12.57;;;;;;;;;;4992208;28;20212;-86
2022/11/09 10:37:40;;;;;;;6.00;5.37;;;;;;;;;;4981452;28;20213;-86
2022/11/09 10:41:10;;;;;;;3.83;2.30;;;;;;;;;;4981423;28;20237;-86
2022/11/09 10:44:32;;;;;;;3.50;2.00;;;;;;;;;;4995256;28;20185;-86
2022/11/09 10:47:55;;;;;;;3.50;1.40;;;;;;;;;;5003976;28;20186;-86
2022/11/09 10:51:53;;;;;;;2.70;1.67;;;;;;;;;;4994836;28;20681;-87
2022/11/09 10:55:25;;;;;;;4.93;1.67;;;;;;;;;;4954298;28;20200;-82
2022/11/09 10:58:51;;;;;;;3.10;1.77;;;;;;;;;;4994731;28;20178;-87
2022/11/09 13:59:00;;;;;;;5.77;2.23;;;;;;;;;;5020392;28;20210;-90
2022/11/09 14:04:08;;;;;;;5.87;1.87;;;;;;;;;;5016872;28;20205;-89
2022/11/09 14:07:34;;;;;;;3.70;2.23;;;;;;;;;;5003871;28;20209;-90
2022/11/09 14:11:30;;;;;;;4.70;1.77;;;;;;;;;;5004766;28;20213;-90
2022/11/09 14:15:20;;;;;;;3.30;2.00;;;;;;;;;;5010179;28;20185;-89
2022/11/09 14:18:52;;;;;;;3.30;1.90;;;;;;;;;;5009439;28;20181;-91
2022/11/09 14:22:18;;;;;;;6.00;2.70;;;;;;;;;;4998000;28;20209;-90
2022/11/09 14:25:41;;;;;;;6.03;2.50;;;;;;;;;;5006803;28;20190;-90
2022/11/09 14:29:19;;;;;;;4.67;2.30;;;;;;;;;;5015405;28;20190;-90
2022/11/09 14:32:48;;;;;;;3.63;2.23;;;;;;;;;;5012689;28;20209;-89
2022/11/09 14:36:13;;;;;;;5.40;2.10;;;;;;;;;;5017272;28;20193;-86
2022/11/09 14:39:41;;;;;;;5.57;2.33;;;;;;;;;;5012526;28;20185;-86
2022/11/09 14:43:27;;;;;;;4.37;2.47;;;;;;;;;;5028170;28;20668;-86
2022/11/09 14:46:55;;;;;;;3.67;2.17;;;;;;;;;;5013672;28;20193;-86
2022/11/09 14:50:25;;;;;;;2.57;2.00;;;;;;;;;;5011777;28;20205;-86
2022/11/09 14:53:49;;;;;;;4.20;2.70;;;;;;;;;;5032301;28;20205;-85
2022/11/09 14:57:15;;;;;;;4.93;2.60;;;;;;;;;;5023498;28;20204;-86
2022/11/09 15:00:38;;;;;;;6.73;2.87;;;;;;;;;;5008757;28;20229;-85
2022/11/09 15:04:04;;;;;;;3.83;2.47;;;;;;;;;;4998569;28;20190;-85
2022/11/09 15:07:31;;;;;;;6.57;2.20;;;;;;;;;;4998033;28;20213;-84
2022/11/09 15:10:54;;;;;;;5.43;2.63;;;;;;;;;;5005803;28;20229;-85
2022/11/09 15:14:16;;;;;;;3.87;2.83;;;;;;;;;;4996615;28;20185;-85
2022/11/09 15:17:44;;;;;;;4.07;2.30;;;;;;;;;;4996649;28;20186;-85
2022/11/09 15:21:34;;;;;;;5.10;2.63;;;;;;;;;;4995689;28;20229;-85
2022/11/09 15:24:56;;;;;;;4.23;2.70;;;;;;;;;;4996133;28;20209;-85
2022/11/09 15:28:25;;;;;;;5.30;3.10;;;;;;;;;;4996038;28;20186;-84
2022/11/09 15:32:10;;;;;;;3.07;2.53;;;;;;;;;;4995007;28;20697;-85
2022/11/09 15:35:33;;;;;;;5.17;2.53;;;;;;;;;;5020892;28;20213;-84
2022/11/09 15:38:56;;;;;;;3.03;2.30;;;;;;;;;;5014850;28;20185;-85
2022/11/09 15:42:19;;;;;;;4.17;2.73;;;;;;;;;;5014176;28;20209;-85
2022/11/09 15:45:42;;;;;;;3.17;1.97;;;;;;;;;;5014644;28;20193;-85
2022/11/09 15:49:28;;;;;;;6.47;2.53;;;;;;;;;;5015505;28;20621;-84
2022/11/09 15:52:53;;;;;;;4.40;2.40;;;;;;;;;;5015434;28;20177;-85
2022/11/09 15:56:22;;;;;;;4.97;2.20;;;;;;;;;;5014265;28;20185;-85
2022/11/09 15:59:49;;;;;;;3.10;2.13;;;;;;;;;;5035084;28;20193;-85
2022/11/09 16:03:12;;;;;;;5.50;2.00;;;;;;;;;;5014520;28;20188;-85
2022/11/09 16:06:38;;;;;;;7.47;2.40;;;;;;;;;;5014425;28;20217;-85
2022/11/09 16:10:01;;;;;;;4.53;2.30;;;;;;;;;;5013987;28;20204;-85
2022/11/09 16:13:23;;;;;;;11.27;3.30;;;;;;;;;;5014732;28;20181;-85
2022/11/09 16:16:46;;;;;;;9.87;6.40;;;;;;;;;;5015071;28;20188;-85
2022/11/09 16:20:09;;;;;;;9.30;7.20;;;;;;;;;;5023373;28;20193;-85
2022/11/09 16:23:32;;;;;;;9.13;8.07;;;;;;;;;;5022618;28;20189;-85
2022/11/09 16:26:55;;;;;;;5.63;4.07;;;;;;;;;;5014688;28;20217;-85
2022/11/09 16:30:19;;;;;;;5.80;3.47;;;;;;;;;;5000897;28;20210;-85
2022/11/09 16:33:41;;;;;;;7.90;3.30;;;;;;;;;;5006575;28;20633;-85
2022/11/09 16:37:04;;;;;;;7.03;3.30;;;;;;;;;;5014471;28;20213;-85
2022/11/09 16:40:27;;;;;;;4.10;2.93;;;;;;;;;;5019891;28;20671;-84
2022/11/09 16:43:52;;;;;;;8.13;2.90;;;;;;;;;;5018339;28;20189;-84
2022/11/09 16:47:16;;;;;;;4.10;3.00;;;;;;;;;;5018272;28;20193;-84
2022/11/09 16:50:39;;;;;;;6.60;3.53;;;;;;;;;;5027230;28;20216;-84
2022/11/09 16:54:01;;;;;;;7.17;5.10;;;;;;;;;;5026471;28;20185;-84
2022/11/09 16:57:24;;;;;;;8.13;6.17;;;;;;;;;;5018012;28;20636;-84
2022/11/09 17:00:48;;;;;;;12.07;7.33;;;;;;;;;;5026053;28;20229;-84
2022/11/09 17:04:11;;;;;;;6.50;5.50;;;;;;;;;;5038852;28;20198;-83
2022/11/09 17:07:36;;;;;;;7.73;4.80;;;;;;;;;;5018017;28;20213;-84
2022/11/09 17:10:59;;;;;;;7.70;6.27;;;;;;;;;;5016047;28;20220;-84
2022/11/09 17:14:21;;;;;;;8.20;6.33;;;;;;;;;;5017796;28;20529;-84
2022/11/09 17:17:44;;;;;;;5.43;3.73;;;;;;;;;;5018603;28;20193;-84
2022/11/09 17:21:13;;;;;;;4.20;3.40;;;;;;;;;;5038966;28;20220;-84
2022/11/09 17:24:35;;;;;;;4.80;3.40;;;;;;;;;;5018875;28;20193;-87
2022/11/09 17:27:59;;;;;;;5.83;2.97;;;;;;;;;;5013384;28;20212;-87
2022/11/09 17:31:23;;;;;;;5.03;2.90;;;;;;;;;;4998080;28;20213;-87
2022/11/09 17:34:45;;;;;;;6.30;3.10;;;;;;;;;;5006824;28;20186;-87
2022/11/09 17:38:08;;;;;;;6.03;3.47;;;;;;;;;;5008884;28;20189;-87
2022/11/09 17:41:30;;;;;;;4.30;2.90;;;;;;;;;;4996925;28;20228;-87
2022/11/09 17:44:53;;;;;;;5.70;3.30;;;;;;;;;;5005301;28;20190;-87
2022/11/09 17:48:16;;;;;;;7.23;4.30;;;;;;;;;;4996602;28;20182;-87
2022/11/09 17:51:38;;;;;;;4.10;3.20;;;;;;;;;;4997344;28;20217;-87
2022/11/09 17:55:01;;;;;;;5.80;3.60;;;;;;;;;;4997298;28;20190;-87
2022/11/09 17:58:24;;;;;;;7.87;3.40;;;;;;;;;;5018004;28;20189;-87
2022/11/09 18:01:47;;;;;;;4.93;2.93;;;;;;;;;;5005497;28;20229;-87
2022/11/09 18:05:10;;;;;;;4.00;3.03;;;;;;;;;;5010263;28;20554;-87
2022/11/09 18:08:33;;;;;;;6.80;2.57;;;;;;;;;;4994795;28;20186;-87
2022/11/09 18:11:55;;;;;;;3.63;2.73;;;;;;;;;;4994433;28;20221;-87
2022/11/09 18:15:18;;;;;;;4.00;2.77;;;;;;;;;;5040920;22;20241;-79
2022/11/09 18:18:40;;;;;;;6.00;3.30;;;;;;;;;;5029809;28;20213;-78
2022/11/09 18:22:03;;;;;;;7.77;4.40;;;;;;;;;;5026663;28;20224;-78
2022/11/09 18:25:26;;;;;;;8.63;3.60;;;;;;;;;;5037586;28;20193;-80
2022/11/09 18:28:49;;;;;;;7.77;3.70;;;;;;;;;;5026948;28;20181;-79
2022/11/09 18:32:11;;;;;;;4.57;3.33;;;;;;;;;;5034041;28;20213;-80
2022/11/09 18:35:34;;;;;;;4.33;3.17;;;;;;;;;;5024501;28;20189;-78
2022/11/09 18:38:57;;;;;;;6.77;3.50;;;;;;;;;;5034563;28;20181;-78
2022/11/09 18:42:19;;;;;;;3.67;2.70;;;;;;;;;;5033555;28;20229;-79
2022/11/09 18:45:42;;;;;;;4.23;3.00;;;;;;;;;;5024476;28;20189;-78
2022/11/09 18:49:04;;;;;;;4.17;3.10;;;;;;;;;;5035568;28;20185;-79
2022/11/09 18:52:27;;;;;;;4.73;2.73;;;;;;;;;;5023458;28;20221;-78
2022/11/09 18:55:50;;;;;;;4.77;3.20;;;;;;;;;;5017381;28;20568;-79
2022/11/09 18:59:13;;;;;;;5.37;3.33;;;;;;;;;;5016595;28;20185;-79
2022/11/09 19:02:35;;;;;;;7.57;3.57;;;;;;;;;;5025148;28;20561;-79
2022/11/09 19:06:02;;;;;;;4.10;3.17;;;;;;;;;;5016997;28;20189;-79
2022/11/09 19:09:28;;;;;;;4.60;3.70;;;;;;;;;;5016808;28;20185;-79
2022/11/09 19:12:50;;;;;;;5.30;3.80;;;;;;;;;;5030209;28;20221;-79
2022/11/09 19:16:14;;;;;;;5.10;3.70;;;;;;;;;;5034172;28;20209;-79
2022/11/09 19:19:36;;;;;;;5.13;4.30;;;;;;;;;;5024199;28;20185;-78
2022/11/09 19:22:59;;;;;;;4.70;4.10;;;;;;;;;;5035527;28;20205;-79
2022/11/09 19:26:22;;;;;;;5.97;4.17;;;;;;;;;;5031477;28;20189;-79
2022/11/09 19:29:46;;;;;;;7.80;4.60;;;;;;;;;;5031760;28;20185;-79
2022/11/09 19:33:10;;;;;;;7.83;5.03;;;;;;;;;;5003292;28;20659;-78
2022/11/09 19:36:33;;;;;;;7.50;5.10;;;;;;;;;;5003501;28;20204;-80
2022/11/09 19:39:56;;;;;;;7.57;5.30;;;;;;;;;;5008043;28;20201;-78
2022/11/09 19:43:19;;;;;;;10.83;6.50;;;;;;;;;;5015013;28;20210;-80
2022/11/09 19:46:41;;;;;;;10.43;8.60;;;;;;;;;;5016054;28;20197;-79
2022/11/09 19:50:05;;;;;;;11.67;9.97;;;;;;;;;;5024210;28;20197;-79
2022/11/09 19:53:29;;;;;;;11.37;8.50;;;;;;;;;;5024488;28;20548;-78
2022/11/09 19:56:52;;;;;;;12.70;8.60;;;;;;;;;;5023465;28;20650;-79
2022/11/09 20:00:15;;;;;;;12.83;8.10;;;;;;;;;;5021885;28;20195;-79
2022/11/09 20:03:38;;;;;;;14.93;8.70;;;;;;;;;;5034060;28;20179;-78
2022/11/09 20:07:01;;;;;;;12.63;8.07;;;;;;;;;;5025862;28;20674;-79
2022/11/09 20:10:27;;;;;;;16.27;11.37;;;;;;;;;;5021655;28;20191;-79
2022/11/09 20:13:50;;;;;;;10.63;7.93;;;;;;;;;;5040031;28;20196;-78
2022/11/09 20:17:12;;;;;;;9.20;5.97;;;;;;;;;;5037561;28;20216;-78
2022/11/09 20:20:37;;;;;;;5.57;4.90;;;;;;;;;;5038861;28;20181;-79
2022/11/09 20:24:00;;;;;;;5.17;4.60;;;;;;;;;;5026394;28;20181;-78
2022/11/09 20:27:24;;;;;;;5.00;4.20;;;;;;;;;;5027026;28;20200;-78
2022/11/09 20:30:47;;;;;;;5.53;4.53;;;;;;;;;;5019481;28;20186;-78
2022/11/09 20:34:11;;;;;;;8.73;4.43;;;;;;;;;;5020006;28;20177;-79
2022/11/09 20:37:35;;;;;;;6.47;4.20;;;;;;;;;;5014070;28;20213;-79
2022/11/09 20:41:01;;;;;;;6.40;4.17;;;;;;;;;;5021660;28;20517;-79
2022/11/09 20:44:25;;;;;;;6.57;4.07;;;;;;;;;;5020653;28;20540;-79
2022/11/09 20:47:50;;;;;;;8.70;4.00;;;;;;;;;;5021241;28;20185;-79
2022/11/09 20:51:17;;;;;;;5.93;3.87;;;;;;;;;;5013914;28;20707;-79
2022/11/09 20:54:41;;;;;;;4.83;4.17;;;;;;;;;;5010973;28;20193;-79
2022/11/09 20:58:05;;;;;;;7.47;4.50;;;;;;;;;;5001325;28;20190;-78
2022/11/09 21:01:30;;;;;;;6.87;4.57;;;;;;;;;;5000776;28;20225;-78
2022/11/09 21:04:54;;;;;;;6.27;4.60;;;;;;;;;;5011520;28;20664;-78
2022/11/09 21:08:18;;;;;;;7.43;4.20;;;;;;;;;;5002015;28;20182;-79
2022/11/09 21:15:40;;;;;;;6.00;4.97;;;;;;;;;;4978263;28;20218;-78
2022/11/09 21:19:04;;;;;;;6.23;4.60;;;;;;;;;;5005304;28;20193;-78
2022/11/09 21:29:51;;;;;;;8.33;6.00;;;;;;;;;;5013415;28;20653;-78
2022/11/09 21:33:14;;;;;;;8.60;6.27;;;;;;;;;;5025945;28;20182;-78
2022/11/09 21:36:41;;;;;;;10.03;6.87;;;;;;;;;;5017685;28;20185;-79
2022/11/09 21:40:06;;;;;;;10.93;7.53;;;;;;;;;;5005444;28;20181;-79
2022/11/09 21:43:29;;;;;;;10.17;6.93;;;;;;;;;;5016629;28;20210;-79
2022/11/09 21:46:53;;;;;;;12.70;7.20;;;;;;;;;;5004596;28;20204;-79
2022/11/09 21:50:16;;;;;;;12.00;7.53;;;;;;;;;;5014442;28;20190;-79
2022/11/09 21:53:39;;;;;;;10.57;7.43;;;;;;;;;;5023624;28;20201;-79
2022/11/09 21:57:02;;;;;;;10.97;7.93;;;;;;;;;;5024361;28;20193;-79
2022/11/09 22:00:26;;;;;;;9.83;7.40;;;;;;;;;;5024500;28;20185;-78
2022/11/09 22:03:50;;;;;;;11.40;8.27;;;;;;;;;;5013554;28;20209;-79
2022/11/09 22:07:12;;;;;;;12.27;8.43;;;;;;;;;;5004886;28;20190;-79
2022/11/09 22:10:35;;;;;;;12.07;8.20;;;;;;;;;;5003571;28;20189;-78
2022/11/09 22:17:40;;;;;;;10.80;8.53;;;;;;;;;;5012338;28;20206;-78
2022/11/09 22:21:03;;;;;;;9.57;8.00;;;;;;;;;;5014372;28;20229;-78
2022/11/09 22:24:25;;;;;;;14.67;8.50;;;;;;;;;;5014068;28;20174;-78
2022/11/09 22:27:48;;;;;;;11.97;9.27;;;;;;;;;;5040671;28;20221;-78
2022/11/09 22:31:12;;;;;;;10.37;9.20;;;;;;;;;;5033581;28;20252;-78
2022/11/09 22:34:35;;;;;;;13.93;10.03;;;;;;;;;;5022944;28;20633;-78
2022/11/09 22:38:01;;;;;;;12.00;9.67;;;;;;;;;;5031777;28;20192;-78